createdAt,value
2023-03-05T00:00:49.105Z,77.05
2023-03-05T00:03:15.611Z,76.92
2023-03-05T00:05:42.072Z,77.07
2023-03-05T00:08:08.536Z,77.25
2023-03-05T00:10:34.976Z,77.21
2023-03-05T00:13:01.428Z,77.46
2023-03-05T00:15:28.068Z,77.62
2023-03-05T00:17:54.512Z,77.73
2023-03-05T00:20:20.949Z,77.83
2023-03-05T00:22:47.655Z,78.00
2023-03-05T00:25:14.078Z,77.91
2023-03-05T00:27:40.637Z,78.00
2023-03-05T00:30:08.018Z,78.26
2023-03-05T00:32:36.385Z,78.23
2023-03-05T00:35:03.002Z,78.04
2023-03-05T00:37:29.508Z,78.32
2023-03-05T00:39:56.035Z,78.59
2023-03-05T00:42:22.555Z,78.75
2023-03-05T00:44:49.011Z,78.60
2023-03-05T00:47:18.507Z,78.66
2023-03-05T00:49:45.165Z,78.61
2023-03-05T00:52:11.685Z,78.97
2023-03-05T00:54:38.182Z,78.37
2023-03-05T00:57:05.733Z,78.92
2023-03-05T00:59:32.201Z,78.89
2023-03-05T01:01:58.940Z,79.02
2023-03-05T01:04:25.417Z,78.93
2023-03-05T01:06:51.945Z,79.00
2023-03-05T01:09:18.929Z,78.91
2023-03-05T01:11:45.401Z,79.25
2023-03-05T01:14:11.855Z,79.18
2023-03-05T01:16:38.459Z,79.34
2023-03-05T01:19:05.352Z,79.32
2023-03-05T01:21:32.343Z,79.53
2023-03-05T01:23:59.008Z,79.61
2023-03-05T01:26:25.505Z,79.64
2023-03-05T01:28:51.956Z,79.59
2023-03-05T01:31:18.752Z,79.92
2023-03-05T01:33:45.354Z,79.90
2023-03-05T01:36:15.479Z,80.03
2023-03-05T01:38:43.414Z,80.10
2023-03-05T01:41:10.834Z,80.13
2023-03-05T01:43:37.338Z,80.17
2023-03-05T01:46:12.915Z,80.23
2023-03-05T01:48:40.796Z,80.12
2023-03-05T01:51:07.516Z,80.17
2023-03-05T01:53:33.974Z,80.23
2023-03-05T01:56:00.510Z,80.19
2023-03-05T01:58:27.224Z,80.14
2023-03-05T02:00:54.423Z,80.19
2023-03-05T02:03:22.731Z,80.22
2023-03-05T02:05:49.752Z,79.96
2023-03-05T02:08:18.948Z,80.15
2023-03-05T02:10:48.405Z,80.09
2023-03-05T02:13:17.494Z,80.23
2023-03-05T02:15:44.327Z,80.23
2023-03-05T02:18:11.242Z,79.89
2023-03-05T02:20:43.801Z,79.89
2023-03-05T02:23:10.327Z,79.78
2023-03-05T02:25:36.790Z,79.90
2023-03-05T02:28:08.232Z,79.98
2023-03-05T02:30:35.508Z,79.89
2023-03-05T02:33:02.010Z,79.75
2023-03-05T02:35:28.612Z,80.19
2023-03-05T02:37:55.094Z,79.98
2023-03-05T02:40:21.883Z,80.07
2023-03-05T02:42:49.097Z,80.13
2023-03-05T02:45:16.194Z,80.05
2023-03-05T02:47:42.921Z,80.13
2023-03-05T02:50:11.413Z,80.36
2023-03-05T02:52:38.528Z,80.11
2023-03-05T02:55:09.474Z,80.22
2023-03-05T02:57:37.123Z,80.44
2023-03-05T03:00:05.639Z,80.56
2023-03-05T03:02:32.454Z,80.74
2023-03-05T03:04:58.966Z,80.65
2023-03-05T03:07:25.535Z,80.47
2023-03-05T03:09:52.082Z,80.70
2023-03-05T03:12:18.518Z,80.67
2023-03-05T03:14:44.959Z,80.57
2023-03-05T03:17:17.318Z,80.61
2023-03-05T03:19:44.983Z,80.35
2023-03-05T03:22:13.032Z,80.75
2023-03-05T03:24:40.949Z,80.54
2023-03-05T03:27:08.166Z,80.41
2023-03-05T03:29:34.826Z,80.37
2023-03-05T03:32:01.367Z,80.54
2023-03-05T03:34:28.022Z,80.30
2023-03-05T03:36:54.750Z,80.20
2023-03-05T03:39:22.230Z,80.00
2023-03-05T03:41:51.050Z,80.05
2023-03-05T03:44:19.042Z,80.11
2023-03-05T03:46:46.324Z,79.98
2023-03-05T03:49:19.266Z,80.02
2023-03-05T03:51:46.453Z,79.92
2023-03-05T03:54:14.199Z,80.00
2023-03-05T03:56:40.711Z,79.68
2023-03-05T03:59:07.596Z,79.93
2023-03-05T04:01:34.209Z,79.87
2023-03-05T04:04:00.880Z,79.78
2023-03-05T04:06:27.496Z,79.60
2023-03-05T04:08:54.088Z,79.68
2023-03-05T04:11:20.523Z,79.72
2023-03-05T04:13:47.496Z,79.83
2023-03-05T04:16:14.783Z,80.05
2023-03-05T04:18:41.958Z,79.84
2023-03-05T04:21:08.524Z,80.05
2023-03-05T04:23:35.426Z,79.89
2023-03-05T04:26:01.998Z,79.65
2023-03-05T04:28:28.614Z,79.61
2023-03-05T04:30:55.140Z,79.69
2023-03-05T04:33:21.667Z,79.86
2023-03-05T04:35:48.298Z,79.90
2023-03-05T04:38:14.765Z,79.62
2023-03-05T04:40:41.442Z,79.84
2023-03-05T04:43:08.147Z,79.83
2023-03-05T04:45:34.730Z,79.75
2023-03-05T04:48:01.217Z,79.75
2023-03-05T04:50:27.694Z,79.79
2023-03-05T04:52:54.397Z,79.73
2023-03-05T04:55:20.892Z,80.00
2023-03-05T04:57:47.402Z,79.85
2023-03-05T05:00:15.446Z,79.94
2023-03-05T05:02:43.773Z,79.80
2023-03-05T05:05:12.994Z,79.85
2023-03-05T05:07:39.487Z,80.12
2023-03-05T05:10:08.021Z,80.56
2023-03-05T05:12:35.031Z,80.48
2023-03-05T05:15:01.799Z,80.58
2023-03-05T05:17:32.865Z,80.49
2023-03-05T05:20:06.438Z,80.54
2023-03-05T05:22:33.335Z,80.23
2023-03-05T05:24:59.912Z,80.41
2023-03-05T05:27:26.396Z,80.63
2023-03-05T05:29:53.041Z,80.66
2023-03-05T05:32:21.110Z,80.58
2023-03-05T05:34:48.227Z,80.33
2023-03-05T05:37:14.815Z,80.35
2023-03-05T05:39:41.305Z,80.47
2023-03-05T05:42:07.841Z,80.54
2023-03-05T05:44:34.864Z,80.48
2023-03-05T05:47:01.752Z,80.84
2023-03-05T05:49:28.297Z,80.99
2023-03-05T05:51:54.752Z,80.57
2023-03-05T05:54:21.275Z,81.09
2023-03-05T05:56:47.767Z,81.09
2023-03-05T05:59:14.268Z,81.03
2023-03-05T06:01:40.842Z,81.05
2023-03-05T06:04:07.640Z,81.13
2023-03-05T06:06:34.966Z,81.24
2023-03-05T06:09:01.968Z,81.12
2023-03-05T06:11:28.612Z,81.36
2023-03-05T06:13:55.103Z,81.28
2023-03-05T06:16:23.868Z,81.64
2023-03-05T06:18:51.650Z,81.70
2023-03-05T06:21:19.749Z,81.64
2023-03-05T06:23:47.663Z,81.89
2023-03-05T06:26:16.876Z,81.98
2023-03-05T06:28:43.410Z,82.25
2023-03-05T06:31:21.982Z,82.05
2023-03-05T06:33:49.763Z,82.24
2023-03-05T06:36:17.704Z,82.04
2023-03-05T06:38:44.497Z,82.29
2023-03-05T06:41:13.885Z,82.18
2023-03-05T06:43:42.073Z,82.35
2023-03-05T06:46:12.923Z,82.25
2023-03-05T06:48:39.772Z,82.03
2023-03-05T06:51:13.412Z,82.15
2023-03-05T06:53:40.021Z,82.26
2023-03-05T06:56:06.630Z,81.87
2023-03-05T06:58:33.160Z,82.06
2023-03-05T07:00:59.653Z,82.00
2023-03-05T07:03:26.103Z,81.78
2023-03-05T07:05:52.514Z,81.78
2023-03-05T07:08:18.946Z,81.57
2023-03-05T07:10:45.485Z,81.37
2023-03-05T07:13:11.940Z,81.25
2023-03-05T07:15:39.174Z,81.03
2023-03-05T07:18:05.765Z,80.85
2023-03-05T07:20:36.948Z,80.72
2023-03-05T07:23:03.897Z,80.38
2023-03-05T07:25:30.868Z,80.28
2023-03-05T07:27:57.547Z,79.82
2023-03-05T07:30:23.974Z,79.53
2023-03-05T07:32:50.423Z,79.25
2023-03-05T07:35:16.901Z,79.05
2023-03-05T07:37:43.377Z,79.53
2023-03-05T07:40:11.904Z,79.53
2023-03-05T07:42:38.418Z,79.49
2023-03-05T07:45:14.361Z,79.55
2023-03-05T07:47:40.759Z,79.37
2023-03-05T07:50:07.671Z,79.17
2023-03-05T07:52:34.154Z,79.29
2023-03-05T07:55:00.762Z,79.42
2023-03-05T07:57:27.254Z,79.39
2023-03-05T07:59:53.708Z,79.36
2023-03-05T08:02:20.701Z,79.47
2023-03-05T08:04:47.156Z,79.22
2023-03-05T08:07:16.885Z,79.10
2023-03-05T08:09:43.316Z,79.20
2023-03-05T08:12:10.364Z,78.89
2023-03-05T08:14:37.881Z,78.56
2023-03-05T08:17:05.690Z,78.44
2023-03-05T08:19:32.931Z,78.25
2023-03-05T08:21:59.465Z,78.17
2023-03-05T08:24:29.432Z,78.11
2023-03-05T08:26:59.093Z,78.24
2023-03-05T08:29:26.080Z,77.96
2023-03-05T08:31:53.557Z,78.03
2023-03-05T08:34:20.900Z,77.83
2023-03-05T08:36:47.542Z,77.77
2023-03-05T08:39:13.990Z,77.70
2023-03-05T08:41:40.649Z,77.71
2023-03-05T08:44:07.058Z,77.60
2023-03-05T08:46:33.555Z,77.38
2023-03-05T08:49:00.384Z,77.33
2023-03-05T08:51:27.373Z,76.85
2023-03-05T08:53:55.306Z,76.48
2023-03-05T08:56:21.797Z,76.39
2023-03-05T08:58:48.427Z,76.41
2023-03-05T09:01:15.222Z,76.63
2023-03-05T09:03:41.666Z,76.53
2023-03-05T09:06:10.179Z,76.47
2023-03-05T09:08:36.847Z,76.21
2023-03-05T09:11:05.232Z,76.17
2023-03-05T09:13:31.792Z,76.27
2023-03-05T09:16:00.603Z,75.29
2023-03-05T09:18:27.389Z,74.16
2023-03-05T09:20:54.324Z,73.92
2023-03-05T09:23:21.195Z,73.22
2023-03-05T09:25:47.684Z,73.38
2023-03-05T09:28:14.270Z,73.16
2023-03-05T09:30:41.121Z,73.07
2023-03-05T09:33:07.908Z,72.42
2023-03-05T09:35:35.764Z,71.75
2023-03-05T09:38:02.989Z,71.30
2023-03-05T09:40:44.876Z,70.79
2023-03-05T09:43:44.251Z,70.65
2023-03-05T09:46:20.906Z,70.62
2023-03-05T09:49:10.440Z,69.79
2023-03-05T09:51:40.271Z,69.96
2023-03-05T09:54:13.911Z,70.19
2023-03-05T09:56:47.676Z,70.00
2023-03-05T09:59:28.443Z,69.59
2023-03-05T10:02:03.491Z,68.88
2023-03-05T10:04:46.740Z,68.17
2023-03-05T10:07:34.690Z,68.02
2023-03-05T10:10:05.486Z,68.40
2023-03-05T10:13:15.101Z,68.17
2023-03-05T10:15:51.925Z,67.83
2023-03-05T10:18:41.913Z,66.71
2023-03-05T10:21:18.528Z,66.39
2023-03-05T10:23:54.715Z,66.67
2023-03-05T10:26:38.039Z,66.36
2023-03-05T10:29:10.529Z,66.50
2023-03-05T10:31:48.555Z,66.32
2023-03-05T10:34:39.738Z,66.23
2023-03-05T10:37:22.936Z,66.12
2023-03-05T10:39:56.845Z,65.63
2023-03-05T10:42:37.753Z,65.19
2023-03-05T10:45:17.124Z,65.09
2023-03-05T10:47:56.157Z,64.93
2023-03-05T10:50:22.549Z,65.07
2023-03-05T10:52:55.331Z,65.35
2023-03-05T10:55:22.268Z,64.97
2023-03-05T10:57:48.706Z,63.88
2023-03-05T11:00:24.132Z,64.15
2023-03-05T11:02:57.940Z,64.01
2023-03-05T11:05:42.624Z,64.06
2023-03-05T11:08:33.353Z,63.56
2023-03-05T11:11:11.129Z,63.29
2023-03-05T11:13:44.317Z,63.78
2023-03-05T11:16:19.962Z,63.96
2023-03-05T11:18:47.742Z,63.69
2023-03-05T11:21:27.439Z,63.56
2023-03-05T11:24:08.975Z,63.75
2023-03-05T11:26:35.692Z,63.02
2023-03-05T11:29:04.794Z,63.05
2023-03-05T11:31:33.170Z,62.73
2023-03-05T11:34:23.576Z,62.63
2023-03-05T11:36:53.087Z,62.68
2023-03-05T11:39:24.521Z,62.67
2023-03-05T11:41:58.011Z,62.84
2023-03-05T11:44:34.159Z,61.66
2023-03-05T11:47:05.030Z,61.90
2023-03-05T11:49:34.805Z,61.50
2023-03-05T11:52:28.208Z,60.98
2023-03-05T11:55:07.806Z,60.93
2023-03-05T11:57:49.019Z,61.20
2023-03-05T12:00:18.015Z,61.19
2023-03-05T12:02:46.665Z,61.55
2023-03-05T12:05:17.053Z,61.98
2023-03-05T12:07:48.231Z,62.18
2023-03-05T12:10:17.667Z,62.35
2023-03-05T12:12:47.088Z,62.20
2023-03-05T12:15:22.637Z,62.30
2023-03-05T12:18:15.977Z,62.18
2023-03-05T12:20:49.016Z,62.40
2023-03-05T12:23:21.145Z,62.55
2023-03-05T12:25:50.384Z,62.25
2023-03-05T12:28:18.122Z,62.16
2023-03-05T12:30:44.789Z,62.07
2023-03-05T12:33:31.601Z,62.27
2023-03-05T12:36:19.357Z,62.73
2023-03-05T12:38:51.783Z,63.44
2023-03-05T12:41:26.816Z,64.11
2023-03-05T12:44:06.633Z,64.77
2023-03-05T12:46:41.620Z,65.00
2023-03-05T12:49:20.302Z,65.00
2023-03-05T12:51:48.255Z,64.98
2023-03-05T12:54:27.041Z,65.06
2023-03-05T12:56:55.484Z,65.16
2023-03-05T12:59:23.829Z,64.97
2023-03-05T13:01:54.912Z,64.62
2023-03-05T13:04:26.426Z,64.42
2023-03-05T13:07:05.181Z,64.27
2023-03-05T13:09:35.645Z,64.42
2023-03-05T13:12:04.428Z,64.40
2023-03-05T13:14:42.771Z,64.31
2023-03-05T13:17:31.889Z,64.35
2023-03-05T13:20:00.073Z,64.46
2023-03-05T13:22:26.843Z,64.25
2023-03-05T13:25:13.855Z,64.53
2023-03-05T13:27:40.306Z,64.60
2023-03-05T13:30:20.640Z,64.39
2023-03-05T13:32:50.703Z,64.36
2023-03-05T13:35:17.356Z,64.20
2023-03-05T13:37:44.209Z,64.21
2023-03-05T13:40:23.910Z,64.19
2023-03-05T13:42:51.020Z,64.04
2023-03-05T13:45:26.158Z,64.06
2023-03-05T13:48:01.097Z,63.86
2023-03-05T13:50:30.756Z,63.92
2023-03-05T13:53:19.029Z,63.97
2023-03-05T13:55:46.740Z,63.56
2023-03-05T13:58:52.125Z,63.37
2023-03-05T14:01:24.794Z,63.38
2023-03-05T14:03:53.895Z,63.67
2023-03-05T14:06:22.043Z,63.43
2023-03-05T14:08:51.152Z,63.17
2023-03-05T14:11:18.700Z,63.27
2023-03-05T14:13:46.232Z,63.18
2023-03-05T14:16:15.855Z,63.06
2023-03-05T14:18:56.604Z,62.66
2023-03-05T14:21:23.614Z,62.50
2023-03-05T14:23:52.855Z,62.57
2023-03-05T14:26:19.166Z,62.16
2023-03-05T14:28:51.504Z,62.11
2023-03-05T14:31:18.487Z,61.88
2023-03-05T14:33:45.150Z,61.90
2023-03-05T14:36:11.793Z,61.63
2023-03-05T14:38:42.959Z,61.86
2023-03-05T14:41:29.574Z,61.67
2023-03-05T14:43:56.336Z,61.66
2023-03-05T14:46:22.845Z,61.71
2023-03-05T14:48:49.295Z,61.81
2023-03-05T14:51:15.790Z,62.03
2023-03-05T14:53:47.597Z,62.13
2023-03-05T14:56:26.227Z,62.29
2023-03-05T14:58:52.913Z,62.15
2023-03-05T15:01:19.346Z,62.28
2023-03-05T15:03:45.807Z,62.14
2023-03-05T15:06:25.595Z,62.30
2023-03-05T15:08:52.905Z,62.49
2023-03-05T15:11:19.345Z,62.35
2023-03-05T15:13:45.761Z,62.19
2023-03-05T15:16:15.538Z,62.34
2023-03-05T15:18:42.008Z,62.10
2023-03-05T15:21:08.508Z,62.09
2023-03-05T15:23:38.079Z,62.02
2023-03-05T15:26:07.178Z,62.14
2023-03-05T15:28:35.912Z,62.25
2023-03-05T15:31:02.671Z,62.33
2023-03-05T15:33:29.600Z,62.22
2023-03-05T15:35:56.110Z,62.32
2023-03-05T15:38:23.004Z,62.26
2023-03-05T15:40:50.331Z,62.20
2023-03-05T15:43:18.528Z,62.12
2023-03-05T15:45:45.388Z,62.38
2023-03-05T15:48:12.330Z,62.32
2023-03-05T15:50:43.436Z,62.55
2023-03-05T15:53:12.228Z,62.44
2023-03-05T15:55:39.957Z,62.61
2023-03-05T15:58:06.990Z,62.89
2023-03-05T16:00:35.025Z,62.84
2023-03-05T16:03:01.480Z,62.98
2023-03-05T16:05:28.075Z,63.07
2023-03-05T16:07:54.985Z,63.33
2023-03-05T16:10:25.126Z,63.31
2023-03-05T16:12:55.766Z,63.57
2023-03-05T16:15:22.583Z,63.47
2023-03-05T16:17:53.414Z,63.67
2023-03-05T16:20:20.812Z,63.47
2023-03-05T16:22:47.290Z,63.49
2023-03-05T16:25:13.750Z,63.85
2023-03-05T16:27:40.189Z,63.93
2023-03-05T16:30:07.660Z,63.83
2023-03-05T16:32:34.119Z,63.78
2023-03-05T16:35:00.661Z,63.78
2023-03-05T16:37:27.129Z,63.87
2023-03-05T16:39:57.759Z,63.69
2023-03-05T16:42:24.309Z,63.76
2023-03-05T16:44:51.625Z,64.26
2023-03-05T16:47:18.025Z,64.12
2023-03-05T16:49:44.483Z,64.16
2023-03-05T16:52:18.729Z,64.35
2023-03-05T16:54:45.989Z,64.24
2023-03-05T16:57:12.536Z,64.39
2023-03-05T16:59:39.101Z,64.42
2023-03-05T17:02:05.782Z,64.80
2023-03-05T17:04:33.688Z,64.98
2023-03-05T17:07:00.760Z,65.11
2023-03-05T17:09:27.204Z,65.01
2023-03-05T17:11:54.300Z,65.13
2023-03-05T17:14:21.181Z,65.12
2023-03-05T17:16:48.244Z,65.25
2023-03-05T17:19:15.564Z,65.27
2023-03-05T17:21:42.728Z,65.57
2023-03-05T17:24:10.014Z,65.54
2023-03-05T17:26:36.549Z,65.50
2023-03-05T17:29:04.882Z,65.62
2023-03-05T17:31:31.541Z,65.72
2023-03-05T17:33:58.210Z,65.70
2023-03-05T17:36:25.206Z,65.73
2023-03-05T17:38:53.652Z,65.97
2023-03-05T17:41:20.407Z,66.00
2023-03-05T17:43:46.798Z,66.01
2023-03-05T17:46:13.645Z,66.12
2023-03-05T17:48:40.383Z,66.20
2023-03-05T17:51:08.343Z,66.48
2023-03-05T17:53:35.198Z,66.66
2023-03-05T17:56:02.040Z,66.75
2023-03-05T17:58:28.590Z,66.89
2023-03-05T18:00:55.234Z,66.99
2023-03-05T18:03:21.899Z,66.70
2023-03-05T18:05:48.449Z,67.08
2023-03-05T18:08:15.023Z,66.91
2023-03-05T18:10:41.505Z,67.05
2023-03-05T18:13:10.337Z,66.85
2023-03-05T18:15:40.393Z,66.81
2023-03-05T18:18:07.464Z,66.69
2023-03-05T18:20:36.468Z,66.83
2023-03-05T18:23:04.722Z,66.66
2023-03-05T18:25:31.911Z,66.78
2023-03-05T18:28:03.808Z,66.78
2023-03-05T18:30:30.558Z,66.41
2023-03-05T18:32:57.300Z,66.67
2023-03-05T18:35:24.439Z,66.58
2023-03-05T18:37:51.016Z,66.89
2023-03-05T18:40:20.217Z,66.88
2023-03-05T18:42:46.715Z,66.90
2023-03-05T18:45:15.167Z,67.05
2023-03-05T18:47:43.826Z,66.75
2023-03-05T18:50:12.034Z,66.58
2023-03-05T18:52:38.474Z,66.91
2023-03-05T18:55:05.423Z,67.47
2023-03-05T18:57:32.170Z,67.15
2023-03-05T18:59:58.706Z,67.19
2023-03-05T19:02:25.225Z,67.70
2023-03-05T19:04:51.704Z,67.28
2023-03-05T19:07:18.183Z,67.44
2023-03-05T19:09:53.593Z,67.28
2023-03-05T19:12:22.242Z,67.64
2023-03-05T19:14:48.844Z,67.62
2023-03-05T19:17:15.854Z,67.75
2023-03-05T19:19:45.344Z,67.56
2023-03-05T19:22:12.030Z,67.55
2023-03-05T19:24:38.750Z,67.67
2023-03-05T19:27:10.986Z,67.50
2023-03-05T19:29:38.416Z,67.48
2023-03-05T19:32:05.306Z,67.49
2023-03-05T19:34:32.458Z,67.58
2023-03-05T19:36:59.260Z,67.52
2023-03-05T19:39:25.907Z,67.52
2023-03-05T19:41:52.598Z,67.74
2023-03-05T19:44:19.369Z,67.78
2023-03-05T19:46:48.324Z,67.73
2023-03-05T19:49:16.468Z,67.86
2023-03-05T19:51:43.914Z,67.79
2023-03-05T19:54:11.728Z,67.92
2023-03-05T19:56:39.145Z,68.06
2023-03-05T19:59:06.192Z,68.38
2023-03-05T20:01:33.161Z,68.22
2023-03-05T20:04:01.937Z,68.05
2023-03-05T20:06:30.231Z,68.08
2023-03-05T20:08:57.245Z,68.22
2023-03-05T20:11:24.804Z,68.15
2023-03-05T20:13:52.106Z,68.12
2023-03-05T20:16:22.674Z,68.18
2023-03-05T20:18:54.612Z,68.07
2023-03-05T20:21:24.212Z,68.26
2023-03-05T20:23:52.053Z,68.11
2023-03-05T20:26:19.506Z,68.16
2023-03-05T20:28:46.047Z,68.26
2023-03-05T20:31:12.662Z,68.24
2023-03-05T20:33:39.386Z,68.31
2023-03-05T20:36:06.380Z,68.11
2023-03-05T20:38:32.930Z,68.20
2023-03-05T20:41:08.490Z,68.36
2023-03-05T20:43:37.467Z,68.24
2023-03-05T20:46:04.739Z,68.34
2023-03-05T20:48:33.554Z,68.45
2023-03-05T20:51:11.189Z,68.19
2023-03-05T20:53:37.827Z,68.12
2023-03-05T20:56:04.516Z,68.00
2023-03-05T20:58:31.040Z,68.31
2023-03-05T21:00:57.685Z,67.96
2023-03-05T21:03:25.687Z,67.91
2023-03-05T21:05:55.683Z,67.95
2023-03-05T21:08:22.406Z,67.64
2023-03-05T21:10:48.903Z,67.67
2023-03-05T21:13:15.467Z,67.87
2023-03-05T21:15:42.035Z,68.05
2023-03-05T21:18:08.554Z,67.99
2023-03-05T21:20:35.036Z,67.72
2023-03-05T21:23:01.870Z,67.67
2023-03-05T21:25:30.939Z,67.73
2023-03-05T21:28:08.649Z,68.04
2023-03-05T21:30:39.290Z,67.92
2023-03-05T21:33:11.325Z,67.89
2023-03-05T21:35:38.312Z,67.59
2023-03-05T21:38:06.641Z,67.69
2023-03-05T21:40:34.216Z,67.79
2023-03-05T21:43:00.848Z,67.65
2023-03-05T21:45:28.703Z,67.90
2023-03-05T21:47:56.227Z,67.62
2023-03-05T21:50:23.760Z,67.46
2023-03-05T21:52:50.768Z,67.66
2023-03-05T21:55:22.425Z,67.57
2023-03-05T21:57:49.151Z,67.73
2023-03-05T22:00:18.175Z,67.73
2023-03-05T22:02:45.768Z,67.69
2023-03-05T22:05:13.382Z,67.70
2023-03-05T22:07:40.190Z,67.77
2023-03-05T22:10:07.320Z,67.84
2023-03-05T22:12:58.870Z,67.53
2023-03-05T22:15:25.666Z,67.34
2023-03-05T22:17:52.220Z,67.36
2023-03-05T22:20:19.361Z,67.28
2023-03-05T22:22:45.947Z,67.19
2023-03-05T22:25:14.629Z,67.44
2023-03-05T22:27:42.153Z,67.63
2023-03-05T22:30:10.136Z,67.49
2023-03-05T22:32:37.298Z,67.85
2023-03-05T22:35:05.237Z,67.61
2023-03-05T22:37:32.554Z,67.74
2023-03-05T22:39:59.259Z,67.50
2023-03-05T22:42:25.832Z,67.60
2023-03-05T22:44:57.450Z,67.63
2023-03-05T22:47:25.003Z,67.79
2023-03-05T22:49:51.661Z,68.02
2023-03-05T22:52:18.185Z,67.71
2023-03-05T22:54:44.811Z,67.59
2023-03-05T22:57:11.580Z,67.45
2023-03-05T22:59:38.110Z,67.65
2023-03-05T23:02:04.877Z,67.58
2023-03-05T23:04:50.442Z,67.75
2023-03-05T23:07:27.502Z,67.67
2023-03-05T23:09:56.246Z,67.47
2023-03-05T23:12:24.354Z,67.69
2023-03-05T23:14:51.053Z,67.43
2023-03-05T23:17:17.821Z,67.34
2023-03-05T23:19:44.326Z,67.37
2023-03-05T23:22:12.511Z,67.13
2023-03-05T23:24:39.757Z,67.26
2023-03-05T23:27:07.082Z,67.44
2023-03-05T23:29:47.201Z,67.46
2023-03-05T23:32:13.848Z,67.40
2023-03-05T23:34:40.442Z,67.31
2023-03-05T23:37:07.420Z,67.17
2023-03-05T23:39:33.972Z,67.23
2023-03-05T23:42:00.528Z,66.92
2023-03-05T23:44:27.003Z,66.68
2023-03-05T23:46:53.613Z,66.98
2023-03-05T23:49:20.122Z,66.80
2023-03-05T23:51:46.611Z,67.20
2023-03-05T23:54:13.218Z,67.29
2023-03-05T23:56:39.741Z,67.52
2023-03-05T23:59:07.646Z,67.39
